createdAt,value
2023-01-07T00:00:38.470Z,0.00
2023-01-07T00:01:38.397Z,0.00
2023-01-07T00:02:38.449Z,0.00
2023-01-07T00:03:38.387Z,0.00
2023-01-07T00:04:38.380Z,0.00
2023-01-07T00:05:38.338Z,0.00
2023-01-07T00:06:38.373Z,0.00
2023-01-07T00:07:38.314Z,0.00
2023-01-07T00:08:38.320Z,0.00
2023-01-07T00:09:38.313Z,0.00
2023-01-07T00:10:38.297Z,0.00
2023-01-07T00:11:38.272Z,0.00
2023-01-07T00:12:38.262Z,0.00
2023-01-07T00:13:38.232Z,0.00
2023-01-07T00:14:38.249Z,0.00
2023-01-07T00:15:38.238Z,0.00
2023-01-07T00:16:38.216Z,0.00
2023-01-07T00:17:38.176Z,0.00
2023-01-07T00:18:38.180Z,0.00
2023-01-07T00:19:38.144Z,0.00
2023-01-07T00:20:38.187Z,0.00
2023-01-07T00:21:38.113Z,0.00
2023-01-07T00:22:38.168Z,0.00
2023-01-07T00:23:38.096Z,0.00
2023-01-07T00:24:38.125Z,0.00
2023-01-07T00:25:38.060Z,0.00
2023-01-07T00:26:38.111Z,0.00
2023-01-07T00:27:38.047Z,0.00
2023-01-07T00:28:38.058Z,0.00
2023-01-07T00:29:38.039Z,0.00
2023-01-07T00:30:37.991Z,0.00
2023-01-07T00:31:38.073Z,0.00
2023-01-07T00:32:37.975Z,0.00
2023-01-07T00:33:37.993Z,0.00
2023-01-07T00:34:37.951Z,0.00
2023-01-07T00:35:37.955Z,0.00
2023-01-07T00:36:37.955Z,0.00
2023-01-07T00:37:37.927Z,0.00
2023-01-07T00:38:37.885Z,0.00
2023-01-07T00:39:37.899Z,0.00
2023-01-07T00:40:37.870Z,0.00
2023-01-07T00:41:37.916Z,0.00
2023-01-07T00:42:37.841Z,0.00
2023-01-07T00:43:37.857Z,0.00
2023-01-07T00:44:38.083Z,0.00
2023-01-07T00:45:37.833Z,0.00
2023-01-07T00:46:37.796Z,0.00
2023-01-07T00:47:37.828Z,0.00
2023-01-07T00:48:37.774Z,0.00
2023-01-07T00:49:37.777Z,0.00
2023-01-07T00:50:37.729Z,0.00
2023-01-07T00:51:37.733Z,0.00
2023-01-07T00:52:37.743Z,0.00
2023-01-07T00:53:37.730Z,0.00
2023-01-07T00:54:37.688Z,0.00
2023-01-07T00:55:37.692Z,0.00
2023-01-07T00:56:37.656Z,0.00
2023-01-07T00:57:37.748Z,0.00
2023-01-07T00:58:37.643Z,0.00
2023-01-07T00:59:37.653Z,0.00
2023-01-07T01:00:37.620Z,0.00
2023-01-07T01:01:37.717Z,0.00
2023-01-07T01:02:37.618Z,0.00
2023-01-07T01:03:37.583Z,0.00
2023-01-07T01:04:37.591Z,0.00
2023-01-07T01:05:37.572Z,0.00
2023-01-07T01:06:37.539Z,0.00
2023-01-07T01:07:37.541Z,0.00
2023-01-07T01:08:37.524Z,0.00
2023-01-07T01:09:37.535Z,0.00
2023-01-07T01:10:37.466Z,0.00
2023-01-07T01:11:37.505Z,0.00
2023-01-07T01:12:37.446Z,0.00
2023-01-07T01:13:37.470Z,0.00
2023-01-07T01:14:37.418Z,0.00
2023-01-07T01:15:37.461Z,0.00
2023-01-07T01:16:37.456Z,0.00
2023-01-07T01:17:37.411Z,0.00
2023-01-07T01:18:37.369Z,0.00
2023-01-07T01:19:37.372Z,0.00
2023-01-07T01:20:37.364Z,0.00
2023-01-07T01:21:37.342Z,0.00
2023-01-07T01:22:37.309Z,0.00
2023-01-07T01:23:37.318Z,0.00
2023-01-07T01:24:37.313Z,0.00
2023-01-07T01:25:37.299Z,0.00
2023-01-07T01:26:37.284Z,0.00
2023-01-07T01:27:37.281Z,0.00
2023-01-07T01:28:37.219Z,0.00
2023-01-07T01:29:37.278Z,0.00
2023-01-07T01:30:37.205Z,0.00
2023-01-07T01:31:37.274Z,0.00
2023-01-07T01:32:37.176Z,0.00
2023-01-07T01:33:37.213Z,0.00
2023-01-07T01:34:37.203Z,0.00
2023-01-07T01:35:37.165Z,0.00
2023-01-07T01:36:37.151Z,0.00
2023-01-07T01:37:37.220Z,0.00
2023-01-07T01:38:37.111Z,0.00
2023-01-07T01:39:38.063Z,0.00
2023-01-07T01:40:37.067Z,0.00
2023-01-07T01:41:37.108Z,0.00
2023-01-07T01:42:37.048Z,0.00
2023-01-07T01:43:37.058Z,0.00
2023-01-07T01:44:37.075Z,0.00
2023-01-07T01:45:37.051Z,0.00
2023-01-07T01:46:37.047Z,0.00
2023-01-07T01:47:37.025Z,0.00
2023-01-07T01:48:36.966Z,0.00
2023-01-07T01:49:36.985Z,0.00
2023-01-07T01:50:36.945Z,0.00
2023-01-07T01:51:36.952Z,0.00
2023-01-07T01:52:36.918Z,0.00
2023-01-07T01:53:36.965Z,0.00
2023-01-07T01:54:36.934Z,0.00
2023-01-07T01:55:36.894Z,0.00
2023-01-07T01:56:36.853Z,0.00
2023-01-07T01:57:36.877Z,0.00
2023-01-07T01:58:36.865Z,0.00
2023-01-07T01:59:36.848Z,0.00
2023-01-07T02:00:36.871Z,0.00
2023-01-07T02:01:37.154Z,0.00
2023-01-07T02:02:36.853Z,0.00
2023-01-07T02:03:36.819Z,0.00
2023-01-07T02:04:36.782Z,0.00
2023-01-07T02:05:38.165Z,0.00
2023-01-07T02:06:36.727Z,0.00
2023-01-07T02:07:36.740Z,0.00
2023-01-07T02:08:36.706Z,0.00
2023-01-07T02:09:36.713Z,0.00
2023-01-07T02:10:36.695Z,0.00
2023-01-07T02:11:36.707Z,0.00
2023-01-07T02:12:36.676Z,0.00
2023-01-07T02:13:36.668Z,0.00
2023-01-07T02:14:36.628Z,0.00
2023-01-07T02:15:36.661Z,0.00
2023-01-07T02:16:36.643Z,0.00
2023-01-07T02:17:36.600Z,0.00
2023-01-07T02:18:36.561Z,0.00
2023-01-07T02:19:36.582Z,0.00
2023-01-07T02:20:36.569Z,0.00
2023-01-07T02:21:36.564Z,0.00
2023-01-07T02:22:36.525Z,0.00
2023-01-07T02:23:36.538Z,0.00
2023-01-07T02:24:36.489Z,0.00
2023-01-07T02:25:36.506Z,0.00
2023-01-07T02:26:36.493Z,0.00
2023-01-07T02:27:36.476Z,0.00
2023-01-07T02:28:36.429Z,0.00
2023-01-07T02:29:36.447Z,0.00
2023-01-07T02:30:36.414Z,0.00
2023-01-07T02:31:36.514Z,0.00
2023-01-07T02:32:36.390Z,0.00
2023-01-07T02:33:36.420Z,0.00
2023-01-07T02:34:36.359Z,0.00
2023-01-07T02:35:36.390Z,0.00
2023-01-07T02:36:36.332Z,0.00
2023-01-07T02:37:36.359Z,0.00
2023-01-07T02:38:36.331Z,0.00
2023-01-07T02:39:36.317Z,0.00
2023-01-07T02:40:36.311Z,0.00
2023-01-07T02:41:36.284Z,0.00
2023-01-07T02:42:36.242Z,0.00
2023-01-07T02:43:36.289Z,0.00
2023-01-07T02:44:36.229Z,0.00
2023-01-07T02:45:36.306Z,0.00
2023-01-07T02:46:36.219Z,0.00
2023-01-07T02:47:36.220Z,0.00
2023-01-07T02:48:36.182Z,0.00
2023-01-07T02:49:36.191Z,0.00
2023-01-07T02:50:36.170Z,0.00
2023-01-07T02:51:36.192Z,0.00
2023-01-07T02:52:36.141Z,0.00
2023-01-07T02:53:36.145Z,0.00
2023-01-07T02:54:36.128Z,0.00
2023-01-07T02:55:36.127Z,0.00
2023-01-07T02:56:36.093Z,0.00
2023-01-07T02:57:36.095Z,0.00
2023-01-07T02:58:36.042Z,0.00
2023-01-07T02:59:36.103Z,0.00
2023-01-07T03:00:36.085Z,0.00
2023-01-07T03:01:36.222Z,0.00
2023-01-07T03:02:35.999Z,0.00
2023-01-07T03:03:36.004Z,0.00
2023-01-07T03:04:35.989Z,0.00
2023-01-07T03:05:35.982Z,0.00
2023-01-07T03:06:35.946Z,0.00
2023-01-07T03:07:35.985Z,0.00
2023-01-07T03:08:35.925Z,0.00
2023-01-07T03:09:35.923Z,0.00
2023-01-07T03:10:35.945Z,0.00
2023-01-07T03:11:35.894Z,0.00
2023-01-07T03:12:35.879Z,0.00
2023-01-07T03:13:35.894Z,0.00
2023-01-07T03:14:35.834Z,0.00
2023-01-07T03:15:35.869Z,0.00
2023-01-07T03:16:35.836Z,0.00
2023-01-07T03:17:35.858Z,0.00
2023-01-07T03:18:35.784Z,0.00
2023-01-07T03:19:35.790Z,0.00
2023-01-07T03:20:35.788Z,0.00
2023-01-07T03:21:35.770Z,0.00
2023-01-07T03:22:35.763Z,0.00
2023-01-07T03:23:35.761Z,0.00
2023-01-07T03:24:35.709Z,0.00
2023-01-07T03:25:35.727Z,0.00
2023-01-07T03:26:35.711Z,0.00
2023-01-07T03:27:35.705Z,0.00
2023-01-07T03:28:35.692Z,0.00
2023-01-07T03:29:35.687Z,0.00
2023-01-07T03:30:35.625Z,0.00
2023-01-07T03:31:35.676Z,0.00
2023-01-07T03:32:35.595Z,0.00
2023-01-07T03:33:35.606Z,0.00
2023-01-07T03:34:35.597Z,0.00
2023-01-07T03:35:35.578Z,0.00
2023-01-07T03:36:35.535Z,0.00
2023-01-07T03:37:35.566Z,0.00
2023-01-07T03:38:35.530Z,0.00
2023-01-07T03:39:35.532Z,0.00
2023-01-07T03:40:35.531Z,0.00
2023-01-07T03:41:35.508Z,0.00
2023-01-07T03:42:35.468Z,0.00
2023-01-07T03:43:35.528Z,0.00
2023-01-07T03:44:35.432Z,0.00
2023-01-07T03:45:35.486Z,0.00
2023-01-07T03:46:35.404Z,0.00
2023-01-07T03:47:35.413Z,0.00
2023-01-07T03:48:35.411Z,0.00
2023-01-07T03:49:35.409Z,0.00
2023-01-07T03:50:35.368Z,0.00
2023-01-07T03:51:35.363Z,0.00
2023-01-07T03:52:35.326Z,0.00
2023-01-07T03:53:35.354Z,0.00
2023-01-07T03:54:35.313Z,0.00
2023-01-07T03:55:35.322Z,0.00
2023-01-07T03:56:35.286Z,0.00
2023-01-07T03:57:35.278Z,0.00
2023-01-07T03:58:35.278Z,0.00
2023-01-07T03:59:35.288Z,0.00
2023-01-07T04:00:35.256Z,0.00
2023-01-07T04:01:35.330Z,0.00
2023-01-07T04:02:35.214Z,0.00
2023-01-07T04:03:35.215Z,0.00
2023-01-07T04:04:35.302Z,0.00
2023-01-07T04:05:35.222Z,0.00
2023-01-07T04:06:35.158Z,0.00
2023-01-07T04:07:35.160Z,0.00
2023-01-07T04:08:35.124Z,0.00
2023-01-07T04:09:35.137Z,0.00
2023-01-07T04:10:35.100Z,0.00
2023-01-07T04:11:35.125Z,0.00
2023-01-07T04:12:35.080Z,0.00
2023-01-07T04:13:35.081Z,0.00
2023-01-07T04:14:35.043Z,0.00
2023-01-07T04:15:35.048Z,0.00
2023-01-07T04:16:35.149Z,0.00
2023-01-07T04:17:35.043Z,0.00
2023-01-07T04:18:34.992Z,0.00
2023-01-07T04:19:35.004Z,0.00
2023-01-07T04:20:34.957Z,0.00
2023-01-07T04:21:35.009Z,0.00
2023-01-07T04:22:34.958Z,0.00
2023-01-07T04:23:34.938Z,0.00
2023-01-07T04:24:34.906Z,0.00
2023-01-07T04:25:34.926Z,0.00
2023-01-07T04:26:34.882Z,0.00
2023-01-07T04:27:34.914Z,0.00
2023-01-07T04:28:34.849Z,0.00
2023-01-07T04:29:34.884Z,0.00
2023-01-07T04:30:34.875Z,0.00
2023-01-07T04:31:34.840Z,0.00
2023-01-07T04:32:34.814Z,0.00
2023-01-07T04:33:34.822Z,0.00
2023-01-07T04:34:34.801Z,0.00
2023-01-07T04:35:34.791Z,0.00
2023-01-07T04:36:34.744Z,0.00
2023-01-07T04:37:34.780Z,0.00
2023-01-07T04:38:34.742Z,0.00
2023-01-07T04:39:34.733Z,0.00
2023-01-07T04:40:34.700Z,0.00
2023-01-07T04:41:34.698Z,0.00
2023-01-07T04:42:34.688Z,0.00
2023-01-07T04:43:34.698Z,0.00
2023-01-07T04:44:34.652Z,0.00
2023-01-07T04:45:34.624Z,0.00
2023-01-07T04:46:34.756Z,0.00
2023-01-07T04:47:34.616Z,0.00
2023-01-07T04:48:34.619Z,0.00
2023-01-07T04:49:34.623Z,0.00
2023-01-07T04:50:34.602Z,0.00
2023-01-07T04:51:34.564Z,0.00
2023-01-07T04:52:34.591Z,0.00
2023-01-07T04:53:34.524Z,0.00
2023-01-07T04:54:34.571Z,0.00
2023-01-07T04:55:34.509Z,0.00
2023-01-07T04:56:34.551Z,0.00
2023-01-07T04:57:34.471Z,0.00
2023-01-07T04:58:34.475Z,0.00
2023-01-07T04:59:34.436Z,0.00
2023-01-07T05:00:34.455Z,0.00
2023-01-07T05:01:34.563Z,0.00
2023-01-07T05:02:34.437Z,0.00
2023-01-07T05:03:34.400Z,0.00
2023-01-07T05:04:34.412Z,0.00
2023-01-07T05:05:34.397Z,0.00
2023-01-07T05:06:34.417Z,0.00
2023-01-07T05:07:34.339Z,0.00
2023-01-07T05:08:34.356Z,0.00
2023-01-07T05:09:34.335Z,0.00
2023-01-07T05:10:34.359Z,0.00
2023-01-07T05:11:34.312Z,0.00
2023-01-07T05:12:34.294Z,0.00
2023-01-07T05:13:34.273Z,0.00
2023-01-07T05:14:34.297Z,0.00
2023-01-07T05:15:34.262Z,0.00
2023-01-07T05:16:34.376Z,0.00
2023-01-07T05:17:34.215Z,0.00
2023-01-07T05:18:34.231Z,0.00
2023-01-07T05:19:34.189Z,0.00
2023-01-07T05:20:34.244Z,0.00
2023-01-07T05:21:34.172Z,0.00
2023-01-07T05:22:34.175Z,0.00
2023-01-07T05:23:34.127Z,0.00
2023-01-07T05:24:34.123Z,0.00
2023-01-07T05:25:34.144Z,0.00
2023-01-07T05:26:34.133Z,0.00
2023-01-07T05:27:34.083Z,0.00
2023-01-07T05:28:34.096Z,0.00
2023-01-07T05:29:34.073Z,0.00
2023-01-07T05:30:34.122Z,0.00
2023-01-07T05:31:34.027Z,0.00
2023-01-07T05:32:34.035Z,0.00
2023-01-07T05:33:34.019Z,0.00
2023-01-07T05:34:34.042Z,0.00
2023-01-07T05:35:33.977Z,0.00
2023-01-07T05:36:33.982Z,0.00
2023-01-07T05:37:33.969Z,0.00
2023-01-07T05:38:34.006Z,0.00
2023-01-07T05:39:33.932Z,0.00
2023-01-07T05:40:33.935Z,0.00
2023-01-07T05:41:33.947Z,0.00
2023-01-07T05:42:33.905Z,0.00
2023-01-07T05:43:33.877Z,0.00
2023-01-07T05:44:33.877Z,0.00
2023-01-07T05:45:33.856Z,0.00
2023-01-07T05:46:33.972Z,0.00
2023-01-07T05:47:33.813Z,0.00
2023-01-07T05:48:33.825Z,0.00
2023-01-07T05:49:33.808Z,0.00
2023-01-07T05:50:33.809Z,0.00
2023-01-07T05:51:33.795Z,0.00
2023-01-07T05:52:33.806Z,0.00
2023-01-07T05:53:33.739Z,0.00
2023-01-07T05:54:33.753Z,0.00
2023-01-07T05:55:33.719Z,0.00
2023-01-07T05:56:33.739Z,0.00
2023-01-07T05:57:33.688Z,0.00
2023-01-07T05:58:33.758Z,0.00
2023-01-07T05:59:33.659Z,0.00
2023-01-07T06:00:33.703Z,0.00
2023-01-07T06:01:33.694Z,0.00
2023-01-07T06:02:33.652Z,0.00
2023-01-07T06:03:33.669Z,0.00
2023-01-07T06:04:33.637Z,0.00
2023-01-07T06:05:33.610Z,0.00
2023-01-07T06:06:33.613Z,0.00
2023-01-07T06:07:33.553Z,0.00
2023-01-07T06:08:33.563Z,0.00
2023-01-07T06:09:33.544Z,0.00
2023-01-07T06:10:33.577Z,0.00
2023-01-07T06:11:33.510Z,0.00
2023-01-07T06:12:33.515Z,0.00
2023-01-07T06:13:33.485Z,0.00
2023-01-07T06:14:33.483Z,0.00
2023-01-07T06:15:33.477Z,0.00
2023-01-07T06:16:33.475Z,0.00
2023-01-07T06:17:33.475Z,0.00
2023-01-07T06:18:33.439Z,0.00
2023-01-07T06:19:33.408Z,0.00
2023-01-07T06:20:33.409Z,0.00
2023-01-07T06:21:33.384Z,0.00
2023-01-07T06:22:33.425Z,0.00
2023-01-07T06:23:33.355Z,0.00
2023-01-07T06:24:33.351Z,0.00
2023-01-07T06:25:33.313Z,0.00
2023-01-07T06:26:33.340Z,0.00
2023-01-07T06:27:33.325Z,0.00
2023-01-07T06:28:33.300Z,0.00
2023-01-07T06:29:33.304Z,0.00
2023-01-07T06:30:33.302Z,0.00
2023-01-07T06:31:33.304Z,0.00
2023-01-07T06:32:33.258Z,0.00
2023-01-07T06:33:33.665Z,0.00
2023-01-07T06:34:33.244Z,0.00
2023-01-07T06:35:33.199Z,0.00
2023-01-07T06:36:33.195Z,0.00
2023-01-07T06:37:33.190Z,0.00
2023-01-07T06:38:33.187Z,0.00
2023-01-07T06:39:33.135Z,0.00
2023-01-07T06:40:33.151Z,0.00
2023-01-07T06:41:33.133Z,0.00
2023-01-07T06:42:33.155Z,0.00
2023-01-07T06:43:33.070Z,0.00
2023-01-07T06:44:33.097Z,0.00
2023-01-07T06:45:33.078Z,0.00
2023-01-07T06:46:33.107Z,0.00
2023-01-07T06:47:33.050Z,0.00
2023-01-07T06:48:33.083Z,0.00
2023-01-07T06:49:33.005Z,0.00
2023-01-07T06:50:33.018Z,0.00
2023-01-07T06:51:32.997Z,0.00
2023-01-07T06:52:33.001Z,0.00
2023-01-07T06:53:32.974Z,0.00
2023-01-07T06:54:32.957Z,0.00
2023-01-07T06:55:32.923Z,0.00
2023-01-07T06:56:32.968Z,0.00
2023-01-07T06:57:32.907Z,0.00
2023-01-07T06:58:32.929Z,0.00
2023-01-07T06:59:32.889Z,0.00
2023-01-07T07:00:32.915Z,0.00
2023-01-07T07:01:33.085Z,0.00
2023-01-07T07:02:32.987Z,0.00
2023-01-07T07:03:32.847Z,0.00
2023-01-07T07:04:32.852Z,0.00
2023-01-07T07:05:32.794Z,0.00
2023-01-07T07:06:33.758Z,0.00
2023-01-07T07:07:32.775Z,0.00
2023-01-07T07:08:32.808Z,0.00
2023-01-07T07:09:32.747Z,0.00
2023-01-07T07:10:32.795Z,0.00
2023-01-07T07:11:32.721Z,0.00
2023-01-07T07:12:32.756Z,0.00
2023-01-07T07:13:32.690Z,0.00
2023-01-07T07:14:32.694Z,0.00
2023-01-07T07:15:32.665Z,0.00
2023-01-07T07:16:32.913Z,0.00
2023-01-07T07:17:32.673Z,0.00
2023-01-07T07:18:32.651Z,0.00
2023-01-07T07:19:32.646Z,0.00
2023-01-07T07:20:32.649Z,0.00
2023-01-07T07:21:32.604Z,0.00
2023-01-07T07:22:32.644Z,0.00
2023-01-07T07:23:32.592Z,0.00
2023-01-07T07:24:32.570Z,0.00
2023-01-07T07:25:32.549Z,4.00
2023-01-07T07:26:32.539Z,4.00
2023-01-07T07:27:32.534Z,4.00
2023-01-07T07:28:32.524Z,0.00
2023-01-07T07:29:32.519Z,0.00
2023-01-07T07:30:47.249Z,4.00
2023-01-07T07:31:32.550Z,4.00
2023-01-07T07:32:32.466Z,4.00
2023-01-07T07:33:32.425Z,4.00
2023-01-07T07:34:34.184Z,0.00
2023-01-07T07:35:32.426Z,4.00
2023-01-07T07:36:32.404Z,4.00
2023-01-07T07:37:32.381Z,4.00
2023-01-07T07:38:32.381Z,4.00
2023-01-07T07:39:32.350Z,0.00
2023-01-07T07:40:32.398Z,0.00
2023-01-07T07:41:32.333Z,4.00
2023-01-07T07:42:32.327Z,4.00
2023-01-07T07:43:32.304Z,4.00
2023-01-07T07:44:32.310Z,4.00
2023-01-07T07:45:32.290Z,4.00
2023-01-07T07:46:32.367Z,8.00
2023-01-07T07:47:32.260Z,4.00
2023-01-07T07:48:32.291Z,4.00
2023-01-07T07:49:32.219Z,4.00
2023-01-07T07:50:32.287Z,4.00
2023-01-07T07:51:32.192Z,8.00
2023-01-07T07:52:32.201Z,4.00
2023-01-07T07:53:32.159Z,4.00
2023-01-07T07:54:32.187Z,4.00
2023-01-07T07:55:32.181Z,4.00
2023-01-07T07:56:32.140Z,8.00
2023-01-07T07:57:32.127Z,8.00
2023-01-07T07:58:32.129Z,8.00
2023-01-07T07:59:32.080Z,4.00
2023-01-07T08:00:32.096Z,4.00
2023-01-07T08:01:32.246Z,4.00
2023-01-07T08:02:32.084Z,8.00
2023-01-07T08:03:32.149Z,8.00
2023-01-07T08:04:32.072Z,8.00
2023-01-07T08:05:32.014Z,8.00
2023-01-07T08:06:32.040Z,8.00
2023-01-07T08:07:33.565Z,12.00
2023-01-07T08:08:32.012Z,8.00
2023-01-07T08:09:31.967Z,8.00
2023-01-07T08:10:31.983Z,8.00
2023-01-07T08:11:31.941Z,8.00
2023-01-07T08:12:31.929Z,12.00
2023-01-07T08:13:31.915Z,8.00
2023-01-07T08:14:31.914Z,8.00
2023-01-07T08:15:31.884Z,8.00
2023-01-07T08:16:31.997Z,12.00
2023-01-07T08:17:31.850Z,12.00
2023-01-07T08:18:31.857Z,8.00
2023-01-07T08:19:31.831Z,8.00
2023-01-07T08:20:31.841Z,12.00
2023-01-07T08:21:31.823Z,12.00
2023-01-07T08:22:31.809Z,12.00
2023-01-07T08:23:31.800Z,12.00
2023-01-07T08:24:31.813Z,12.00
2023-01-07T08:25:31.764Z,12.00
2023-01-07T08:26:31.766Z,12.00
2023-01-07T08:27:31.721Z,12.00
2023-01-07T08:28:31.765Z,12.00
2023-01-07T08:29:31.728Z,12.00
2023-01-07T08:30:31.748Z,12.00
2023-01-07T08:31:31.848Z,12.00
2023-01-07T08:32:31.704Z,12.00
2023-01-07T08:33:31.650Z,12.00
2023-01-07T08:34:31.649Z,12.00
2023-01-07T08:35:31.617Z,12.00
2023-01-07T08:36:31.629Z,12.00
2023-01-07T08:37:31.607Z,16.00
2023-01-07T08:38:31.746Z,16.00
2023-01-07T08:39:31.572Z,12.00
2023-01-07T08:40:31.586Z,12.00
2023-01-07T08:41:31.541Z,12.00
2023-01-07T08:42:31.538Z,12.00
2023-01-07T08:43:31.527Z,12.00
2023-01-07T08:44:31.528Z,12.00
2023-01-07T08:45:31.485Z,16.00
2023-01-07T08:46:31.596Z,12.00
2023-01-07T08:47:31.475Z,12.00
2023-01-07T08:48:31.489Z,12.00
2023-01-07T08:49:31.442Z,16.00
2023-01-07T08:50:31.484Z,12.00
2023-01-07T08:51:31.415Z,16.00
2023-01-07T08:52:31.415Z,12.00
2023-01-07T08:53:31.376Z,16.00
2023-01-07T08:54:31.442Z,16.00
2023-01-07T08:55:31.363Z,16.00
2023-01-07T08:56:31.403Z,16.00
2023-01-07T08:57:31.332Z,16.00
2023-01-07T08:58:31.350Z,16.00
2023-01-07T08:59:31.293Z,16.00
2023-01-07T09:00:31.400Z,16.00
2023-01-07T09:01:31.446Z,16.00
2023-01-07T09:02:31.340Z,16.00
2023-01-07T09:03:31.264Z,16.00
2023-01-07T09:04:31.218Z,20.00
2023-01-07T09:05:31.287Z,16.00
2023-01-07T09:06:31.197Z,16.00
2023-01-07T09:07:31.239Z,16.00
2023-01-07T09:08:31.211Z,20.00
2023-01-07T09:09:31.181Z,20.00
2023-01-07T09:10:31.166Z,20.00
2023-01-07T09:11:31.165Z,20.00
2023-01-07T09:12:31.160Z,20.00
2023-01-07T09:13:31.176Z,24.00
2023-01-07T09:14:31.100Z,24.00
2023-01-07T09:15:31.127Z,24.00
2023-01-07T09:16:31.107Z,24.00
2023-01-07T09:17:31.109Z,28.00
2023-01-07T09:18:31.116Z,28.00
2023-01-07T09:19:31.056Z,28.00
2023-01-07T09:20:31.044Z,28.00
2023-01-07T09:21:31.078Z,32.00
2023-01-07T09:22:31.014Z,28.00
2023-01-07T09:23:31.021Z,28.00
2023-01-07T09:24:30.994Z,28.00
2023-01-07T09:25:30.983Z,28.00
2023-01-07T09:26:30.930Z,28.00
2023-01-07T09:27:30.982Z,32.00
2023-01-07T09:28:30.919Z,28.00
2023-01-07T09:29:31.196Z,32.00
2023-01-07T09:30:30.924Z,28.00
2023-01-07T09:31:30.917Z,28.00
2023-01-07T09:32:30.879Z,32.00
2023-01-07T09:33:30.905Z,36.00
2023-01-07T09:34:30.861Z,32.00
2023-01-07T09:35:30.869Z,36.00
2023-01-07T09:36:30.797Z,36.00
2023-01-07T09:37:30.869Z,44.00
2023-01-07T09:38:30.822Z,52.00
2023-01-07T09:39:30.818Z,48.00
2023-01-07T09:40:30.767Z,48.00
2023-01-07T09:41:30.788Z,52.00
2023-01-07T09:42:33.059Z,60.00
2023-01-07T09:43:59.949Z,56.00
2023-01-07T09:44:30.752Z,68.00
2023-01-07T09:45:30.793Z,60.00
2023-01-07T09:46:30.674Z,64.00
2023-01-07T09:47:30.715Z,64.00
2023-01-07T09:48:30.656Z,68.00
2023-01-07T09:49:30.678Z,76.00
2023-01-07T09:50:30.666Z,76.00
2023-01-07T09:51:30.643Z,76.00
2023-01-07T09:52:30.631Z,72.00
2023-01-07T09:53:30.632Z,76.00
2023-01-07T09:54:30.591Z,80.00
2023-01-07T09:55:30.583Z,88.00
2023-01-07T09:56:30.573Z,92.00
2023-01-07T09:57:30.558Z,96.00
2023-01-07T09:58:30.551Z,100.00
2023-01-07T09:59:30.527Z,112.00
2023-01-07T10:00:30.515Z,124.00
2023-01-07T10:01:30.603Z,128.00
2023-01-07T10:02:30.554Z,232.00
2023-01-07T10:03:30.587Z,216.00
2023-01-07T10:04:30.448Z,264.00
2023-01-07T10:05:30.461Z,236.00
2023-01-07T10:06:42.744Z,320.00
2023-01-07T10:07:30.449Z,304.00
2023-01-07T10:08:32.049Z,188.00
2023-01-07T10:09:30.429Z,152.00
2023-01-07T10:10:30.388Z,108.00
2023-01-07T10:11:30.367Z,100.00
2023-01-07T10:12:30.359Z,92.00
2023-01-07T10:13:30.363Z,96.00
2023-01-07T10:14:30.316Z,100.00
2023-01-07T10:15:30.329Z,112.00
2023-01-07T10:16:30.317Z,104.00
2023-01-07T10:17:30.293Z,92.00
2023-01-07T10:18:30.294Z,92.00
2023-01-07T10:19:30.267Z,88.00
2023-01-07T10:20:30.232Z,84.00
2023-01-07T10:21:30.242Z,88.00
2023-01-07T10:22:30.202Z,80.00
2023-01-07T10:23:30.237Z,88.00
2023-01-07T10:24:30.169Z,80.00
2023-01-07T10:25:30.221Z,80.00
2023-01-07T10:26:30.148Z,80.00
2023-01-07T10:27:30.172Z,76.00
2023-01-07T10:28:30.139Z,88.00
2023-01-07T10:29:30.163Z,84.00
2023-01-07T10:30:30.107Z,92.00
2023-01-07T10:31:30.217Z,84.00
2023-01-07T10:32:30.085Z,104.00
2023-01-07T10:33:30.088Z,84.00
2023-01-07T10:34:30.044Z,104.00
2023-01-07T10:35:30.089Z,92.00
2023-01-07T10:36:30.035Z,124.00
2023-01-07T10:37:30.053Z,92.00
2023-01-07T10:38:29.996Z,104.00
2023-01-07T10:39:29.995Z,104.00
2023-01-07T10:40:29.982Z,96.00
2023-01-07T10:41:30.012Z,168.00
2023-01-07T10:42:29.942Z,108.00
2023-01-07T10:43:29.956Z,176.00
2023-01-07T10:44:29.920Z,120.00
2023-01-07T10:45:29.980Z,148.00
2023-01-07T10:46:29.917Z,120.00
2023-01-07T10:47:29.900Z,132.00
2023-01-07T10:48:29.876Z,160.00
2023-01-07T10:49:29.869Z,144.00
2023-01-07T10:50:29.828Z,172.00
2023-01-07T10:51:29.858Z,240.00
2023-01-07T10:52:29.845Z,216.00
2023-01-07T10:53:29.804Z,216.00
2023-01-07T10:54:29.777Z,248.00
2023-01-07T10:55:29.792Z,200.00
2023-01-07T10:56:29.766Z,256.00
2023-01-07T10:57:29.778Z,232.00
2023-01-07T10:58:29.730Z,268.00
2023-01-07T10:59:29.741Z,264.00
2023-01-07T11:00:29.699Z,280.00
2023-01-07T11:01:29.879Z,312.00
2023-01-07T11:02:29.938Z,292.00
2023-01-07T11:03:29.814Z,356.00
2023-01-07T11:04:29.665Z,280.00
2023-01-07T11:05:29.650Z,360.00
2023-01-07T11:06:29.650Z,272.00
2023-01-07T11:07:29.672Z,304.00
2023-01-07T11:08:29.679Z,312.00
2023-01-07T11:09:29.623Z,300.00
2023-01-07T11:10:29.606Z,312.00
2023-01-07T11:11:29.580Z,308.00
2023-01-07T11:12:29.552Z,328.00
2023-01-07T11:13:29.589Z,356.00
2023-01-07T11:14:29.503Z,328.00
2023-01-07T11:15:29.545Z,320.00
2023-01-07T11:16:29.574Z,328.00
2023-01-07T11:17:29.521Z,348.00
2023-01-07T11:18:29.481Z,304.00
2023-01-07T11:19:29.465Z,344.00
2023-01-07T11:20:29.438Z,340.00
2023-01-07T11:21:43.225Z,324.00
2023-01-07T11:22:29.437Z,340.00
2023-01-07T11:23:29.427Z,356.00
2023-01-07T11:24:29.379Z,324.00
2023-01-07T11:25:29.406Z,300.00
2023-01-07T11:26:29.381Z,320.00
2023-01-07T11:27:29.363Z,332.00
2023-01-07T11:28:29.363Z,336.00
2023-01-07T11:29:29.350Z,336.00
2023-01-07T11:30:29.691Z,336.00
2023-01-07T11:31:29.329Z,356.00
2023-01-07T11:32:29.282Z,348.00
2023-01-07T11:34:01.835Z,344.00
2023-01-07T11:34:29.263Z,308.00
2023-01-07T11:35:29.254Z,332.00
2023-01-07T11:36:29.232Z,328.00
2023-01-07T11:37:29.265Z,320.00
2023-01-07T11:38:29.211Z,300.00
2023-01-07T11:39:29.207Z,320.00
2023-01-07T11:40:29.180Z,336.00
2023-01-07T11:41:29.170Z,324.00
2023-01-07T11:42:29.205Z,356.00
2023-01-07T11:43:29.127Z,304.00
2023-01-07T11:44:29.145Z,312.00
2023-01-07T11:45:29.267Z,288.00
2023-01-07T11:46:29.201Z,276.00
2023-01-07T11:47:29.077Z,304.00
2023-01-07T11:48:29.109Z,288.00
2023-01-07T11:49:29.068Z,264.00
2023-01-07T11:50:29.086Z,276.00
2023-01-07T11:51:29.082Z,260.00
2023-01-07T11:52:29.025Z,280.00
2023-01-07T11:53:29.002Z,284.00
2023-01-07T11:54:29.019Z,292.00
2023-01-07T11:55:29.003Z,284.00
2023-01-07T11:56:29.003Z,264.00
2023-01-07T11:57:28.943Z,248.00
2023-01-07T11:58:30.964Z,244.00
2023-01-07T11:59:28.927Z,236.00
2023-01-07T12:00:28.926Z,196.00
2023-01-07T12:01:28.982Z,172.00
2023-01-07T12:02:28.903Z,148.00
2023-01-07T12:03:28.866Z,144.00
2023-01-07T12:04:28.884Z,144.00
2023-01-07T12:05:28.860Z,148.00
2023-01-07T12:06:28.863Z,144.00
2023-01-07T12:07:28.825Z,144.00
2023-01-07T12:08:28.829Z,140.00
2023-01-07T12:09:28.788Z,144.00
2023-01-07T12:10:28.810Z,148.00
2023-01-07T12:11:28.760Z,136.00
2023-01-07T12:12:28.807Z,132.00
2023-01-07T12:13:28.734Z,128.00
2023-01-07T12:14:28.767Z,128.00
2023-01-07T12:15:28.701Z,128.00
2023-01-07T12:16:28.835Z,124.00
2023-01-07T12:17:28.705Z,124.00
2023-01-07T12:18:28.711Z,124.00
2023-01-07T12:19:28.723Z,120.00
2023-01-07T12:20:28.683Z,124.00
2023-01-07T12:21:28.637Z,120.00
2023-01-07T12:22:28.658Z,116.00
2023-01-07T12:23:28.657Z,120.00
2023-01-07T12:24:28.617Z,116.00
2023-01-07T12:25:28.573Z,116.00
2023-01-07T12:26:28.583Z,116.00
2023-01-07T12:27:28.539Z,112.00
2023-01-07T12:28:28.585Z,112.00
2023-01-07T12:29:28.522Z,112.00
2023-01-07T12:30:28.538Z,112.00
2023-01-07T12:31:28.542Z,112.00
2023-01-07T12:32:28.518Z,108.00
2023-01-07T12:33:28.459Z,108.00
2023-01-07T12:34:28.516Z,108.00
2023-01-07T12:35:28.454Z,104.00
2023-01-07T12:36:28.460Z,108.00
2023-01-07T12:37:28.429Z,108.00
2023-01-07T12:38:28.420Z,104.00
2023-01-07T12:39:28.401Z,104.00
2023-01-07T12:40:28.423Z,104.00
2023-01-07T12:41:28.361Z,104.00
2023-01-07T12:42:28.383Z,100.00
2023-01-07T12:43:28.330Z,104.00
2023-01-07T12:44:28.361Z,104.00
2023-01-07T12:45:28.328Z,104.00
2023-01-07T12:46:28.414Z,104.00
2023-01-07T12:47:31.056Z,104.00
2023-01-07T12:48:28.302Z,100.00
2023-01-07T12:49:28.250Z,100.00
2023-01-07T12:50:28.302Z,100.00
2023-01-07T12:51:28.247Z,100.00
2023-01-07T12:52:28.255Z,100.00
2023-01-07T12:53:28.192Z,100.00
2023-01-07T12:54:28.200Z,100.00
2023-01-07T12:55:28.192Z,100.00
2023-01-07T12:56:28.199Z,100.00
2023-01-07T12:57:28.138Z,100.00
2023-01-07T12:58:28.248Z,96.00
2023-01-07T12:59:46.256Z,96.00
2023-01-07T13:00:28.133Z,96.00
2023-01-07T13:01:28.207Z,92.00
2023-01-07T13:02:28.146Z,96.00
2023-01-07T13:03:28.072Z,92.00